Time;durP1;ratioP1;P1;durP2;ratioP2;P2;SDS_P1;SDS_P2;PMS_P1;PMS_P2;Temp;Humidity;BMP_temperature;BMP_pressure;BME280_temperature;BME280_humidity;BME280_pressure;Samples;Min_cycle;Max_cycle;Signal;HPM_P1;HPM_P2
2022/04/03 00:00:40;;;;;;;1.50;0.65;;;;;;;;;;4927003;29;20715;-57
2022/04/03 00:03:05;;;;;;;1.90;0.98;;;;;;;;;;4911759;29;20039;-57
2022/04/03 00:05:37;;;;;;;1.67;0.77;;;;;;;;;;4930606;29;20028;-57
2022/04/03 00:08:03;;;;;;;1.63;0.70;;;;;;;;;;4930817;29;20046;-57
2022/04/03 00:10:28;;;;;;;1.20;0.60;;;;;;;;;;4913477;29;20502;-56
2022/04/03 00:12:53;;;;;;;2.37;0.83;;;;;;;;;;4930601;29;20031;-56
2022/04/03 00:15:18;;;;;;;2.33;1.33;;;;;;;;;;4929994;29;20358;-55
2022/04/03 00:17:44;;;;;;;2.10;0.98;;;;;;;;;;4914454;29;20128;-55
2022/04/03 00:20:10;;;;;;;1.52;0.70;;;;;;;;;;4930761;29;20213;-56
2022/04/03 00:22:35;;;;;;;2.13;0.63;;;;;;;;;;4930385;29;20503;-56
2022/04/03 00:25:01;;;;;;;2.20;0.70;;;;;;;;;;4929837;29;20035;-57
2022/04/03 00:27:26;;;;;;;1.67;0.70;;;;;;;;;;4930550;29;20027;-54
2022/04/03 00:29:51;;;;;;;1.70;0.63;;;;;;;;;;4929752;29;20275;-57
2022/04/03 00:32:17;;;;;;;1.50;0.75;;;;;;;;;;4930010;29;20031;-57
2022/04/03 00:34:42;;;;;;;1.58;0.68;;;;;;;;;;4929687;29;20031;-57
2022/04/03 00:37:07;;;;;;;2.07;0.90;;;;;;;;;;4930177;29;20490;-56
2022/04/03 00:39:32;;;;;;;2.60;0.90;;;;;;;;;;4929518;29;20916;-56
2022/04/03 00:41:57;;;;;;;1.50;0.70;;;;;;;;;;4930133;29;20927;-56
2022/04/03 00:44:23;;;;;;;1.63;0.80;;;;;;;;;;4912574;29;20286;-57
2022/04/03 00:46:48;;;;;;;1.93;0.90;;;;;;;;;;4929650;29;20403;-55
2022/04/03 00:49:13;;;;;;;1.65;0.80;;;;;;;;;;4929962;29;20267;-57
2022/04/03 00:51:39;;;;;;;2.38;1.00;;;;;;;;;;4929308;29;20056;-56
2022/04/03 00:54:04;;;;;;;2.77;1.10;;;;;;;;;;4929307;29;20024;-56
2022/04/03 00:56:30;;;;;;;1.58;0.65;;;;;;;;;;4929565;29;20292;-57
2022/04/03 00:58:55;;;;;;;2.13;0.95;;;;;;;;;;4929348;29;20122;-57
2022/04/03 01:01:21;;;;;;;1.45;0.77;;;;;;;;;;4912535;29;20132;-56
2022/04/03 01:03:46;;;;;;;1.23;0.60;;;;;;;;;;4929369;29;20036;-57
2022/04/03 01:06:11;;;;;;;1.40;0.60;;;;;;;;;;4929319;29;20039;-56
2022/04/03 01:08:36;;;;;;;1.47;0.83;;;;;;;;;;4929429;29;20290;-57
2022/04/03 01:11:02;;;;;;;2.57;1.50;;;;;;;;;;4929405;29;20118;-57
2022/04/03 01:13:27;;;;;;;2.20;0.90;;;;;;;;;;4928866;29;20174;-56
2022/04/03 01:15:53;;;;;;;2.53;0.87;;;;;;;;;;4927409;29;20794;-52
2022/04/03 01:18:18;;;;;;;1.35;0.65;;;;;;;;;;4928781;29;20526;-56
2022/04/03 01:20:43;;;;;;;1.90;0.80;;;;;;;;;;4929211;29;20091;-55
2022/04/03 01:23:08;;;;;;;1.87;0.87;;;;;;;;;;4929001;29;20054;-56
2022/04/03 01:25:33;;;;;;;1.90;0.80;;;;;;;;;;4928494;29;20398;-57
2022/04/03 01:27:59;;;;;;;1.70;0.70;;;;;;;;;;4929249;29;20024;-56
2022/04/03 01:30:24;;;;;;;2.10;0.70;;;;;;;;;;4928654;29;20271;-57
2022/04/03 01:32:50;;;;;;;1.95;0.80;;;;;;;;;;4928477;29;20043;-56
2022/04/03 01:35:15;;;;;;;2.50;0.70;;;;;;;;;;4928882;29;20487;-56
2022/04/03 01:37:40;;;;;;;1.70;0.80;;;;;;;;;;4912975;29;20475;-54
2022/04/03 01:40:06;;;;;;;1.60;0.73;;;;;;;;;;4928752;29;20483;-56
2022/04/03 01:42:32;;;;;;;2.20;0.80;;;;;;;;;;4928895;29;20666;-54
2022/04/03 01:44:57;;;;;;;1.77;0.80;;;;;;;;;;4928340;29;20031;-54
2022/04/03 01:47:22;;;;;;;1.85;0.70;;;;;;;;;;4928647;29;20829;-56
2022/04/03 01:49:47;;;;;;;1.75;0.73;;;;;;;;;;4928643;29;20110;-55
2022/04/03 01:52:13;;;;;;;1.48;0.75;;;;;;;;;;4928361;29;20426;-55
2022/04/03 01:54:38;;;;;;;1.37;0.63;;;;;;;;;;4928292;29;20095;-54
2022/04/03 01:57:03;;;;;;;1.88;0.82;;;;;;;;;;4928256;29;20031;-53
2022/04/03 01:59:28;;;;;;;1.50;0.70;;;;;;;;;;4928422;29;20031;-51
2022/04/03 02:01:54;;;;;;;2.03;0.90;;;;;;;;;;4927898;29;20111;-55
2022/04/03 02:04:19;;;;;;;1.47;0.70;;;;;;;;;;4928349;29;20035;-53
2022/04/03 02:06:44;;;;;;;1.30;0.70;;;;;;;;;;4928415;29;20031;-55
2022/04/03 02:09:09;;;;;;;1.60;0.80;;;;;;;;;;4927731;29;20530;-52
2022/04/03 02:11:35;;;;;;;1.47;0.77;;;;;;;;;;4928155;29;20062;-54
2022/04/03 02:14:00;;;;;;;1.30;0.70;;;;;;;;;;4927834;29;20043;-54
2022/04/03 02:16:25;;;;;;;2.35;1.25;;;;;;;;;;4921131;29;20028;-52
2022/04/03 02:18:51;;;;;;;2.25;0.80;;;;;;;;;;4919379;29;20071;-55
2022/04/03 02:21:16;;;;;;;1.77;0.70;;;;;;;;;;4928168;29;20122;-56
2022/04/03 02:23:42;;;;;;;2.08;0.80;;;;;;;;;;4927906;29;20097;-56
2022/04/03 02:26:08;;;;;;;1.17;0.60;;;;;;;;;;4927239;29;20515;-54
2022/04/03 02:28:33;;;;;;;2.00;0.80;;;;;;;;;;4927938;29;20311;-54
2022/04/03 02:30:58;;;;;;;2.83;0.80;;;;;;;;;;4927713;29;20283;-56
2022/04/03 02:33:23;;;;;;;1.87;1.00;;;;;;;;;;4927223;29;20294;-54
2022/04/03 02:35:49;;;;;;;1.90;0.87;;;;;;;;;;4908318;29;20040;-57
2022/04/03 02:38:16;;;;;;;1.70;0.77;;;;;;;;;;4913360;29;20379;-56
2022/04/03 02:40:41;;;;;;;1.20;0.60;;;;;;;;;;4923570;29;20472;-53
2022/04/03 02:43:06;;;;;;;1.95;0.68;;;;;;;;;;4929413;29;20024;-56
2022/04/03 02:45:32;;;;;;;1.70;0.77;;;;;;;;;;4928869;29;20573;-55
2022/04/03 02:47:57;;;;;;;1.23;0.67;;;;;;;;;;4911963;29;20578;-56
2022/04/03 02:50:23;;;;;;;1.38;0.65;;;;;;;;;;4929771;29;20275;-57
2022/04/03 02:52:51;;;;;;;1.42;0.57;;;;;;;;;;4925030;29;20027;-61
2022/04/03 02:55:18;;;;;;;2.80;1.23;;;;;;;;;;4911492;29;20448;-60
2022/04/03 02:57:43;;;;;;;1.92;0.55;;;;;;;;;;4928072;29;20535;-59
2022/04/03 03:00:08;;;;;;;3.00;0.60;;;;;;;;;;4928326;29;20012;-55
2022/04/03 03:02:34;;;;;;;2.22;0.70;;;;;;;;;;4927716;29;20275;-62
2022/04/03 03:04:59;;;;;;;1.35;0.55;;;;;;;;;;4929113;29;20071;-58
2022/04/03 03:07:26;;;;;;;1.10;0.50;;;;;;;;;;4928872;29;20119;-57
2022/04/03 03:09:51;;;;;;;1.35;0.57;;;;;;;;;;4895529;29;20038;-59
2022/04/03 03:12:17;;;;;;;1.03;0.50;;;;;;;;;;4928925;29;20486;-60
2022/04/03 03:14:42;;;;;;;1.50;0.70;;;;;;;;;;4927101;29;20503;-59
2022/04/03 03:17:08;;;;;;;1.50;0.70;;;;;;;;;;4927838;29;20070;-59
2022/04/03 03:19:33;;;;;;;1.48;0.65;;;;;;;;;;4928124;29;20462;-59
2022/04/03 03:21:58;;;;;;;1.63;0.70;;;;;;;;;;4927600;29;20043;-59
2022/04/03 03:24:23;;;;;;;1.67;0.70;;;;;;;;;;4927077;29;20287;-55
2022/04/03 03:26:49;;;;;;;2.70;0.67;;;;;;;;;;4927297;29;20854;-60
2022/04/03 03:29:14;;;;;;;1.90;0.90;;;;;;;;;;4927610;29;20647;-59
2022/04/03 03:31:40;;;;;;;1.30;0.70;;;;;;;;;;4927913;29;20497;-64
2022/04/03 03:34:05;;;;;;;1.60;0.77;;;;;;;;;;4927914;29;20268;-60
2022/04/03 03:36:30;;;;;;;1.17;0.60;;;;;;;;;;4925438;29;20295;-55
2022/04/03 03:38:55;;;;;;;1.25;0.50;;;;;;;;;;4927870;29;20283;-58
2022/04/03 03:41:21;;;;;;;2.47;0.57;;;;;;;;;;4928473;29;20024;-60
2022/04/03 03:43:47;;;;;;;1.63;0.50;;;;;;;;;;4928319;29;20083;-57
2022/04/03 03:46:12;;;;;;;1.30;0.55;;;;;;;;;;4928389;29;20675;-57
2022/04/03 03:48:37;;;;;;;1.30;0.60;;;;;;;;;;4928402;29;20046;-62
2022/04/03 03:51:02;;;;;;;1.20;0.60;;;;;;;;;;4929159;29;20687;-60
2022/04/03 03:53:29;;;;;;;1.60;0.87;;;;;;;;;;4914367;29;20031;-57
2022/04/03 03:55:54;;;;;;;1.42;0.60;;;;;;;;;;4925418;29;20259;-58
2022/04/03 03:58:19;;;;;;;1.13;0.50;;;;;;;;;;4915400;29;20042;-58
2022/04/03 04:00:44;;;;;;;1.57;0.60;;;;;;;;;;4928840;29;20036;-62
2022/04/03 04:03:10;;;;;;;1.23;0.60;;;;;;;;;;4928153;29;20059;-60
2022/04/03 04:05:35;;;;;;;1.53;0.53;;;;;;;;;;4929024;29;20374;-63
2022/04/03 04:08:00;;;;;;;2.03;0.70;;;;;;;;;;4928604;29;20271;-62
2022/04/03 04:10:25;;;;;;;1.60;0.63;;;;;;;;;;4927747;29;20171;-61
2022/04/03 04:12:51;;;;;;;1.65;0.77;;;;;;;;;;4927358;29;20267;-62
2022/04/03 04:15:16;;;;;;;1.42;0.70;;;;;;;;;;4928011;29;20068;-60
2022/04/03 04:17:45;;;;;;;1.38;0.55;;;;;;;;;;4912265;29;20058;-61
2022/04/03 04:20:12;;;;;;;1.20;0.55;;;;;;;;;;4928938;29;20027;-59
2022/04/03 04:22:38;;;;;;;0.93;0.40;;;;;;;;;;4928502;29;20047;-60
2022/04/03 04:25:04;;;;;;;1.13;0.50;;;;;;;;;;4910464;29;20019;-63
2022/04/03 04:27:30;;;;;;;2.15;0.60;;;;;;;;;;4927614;29;20110;-62
2022/04/03 04:29:55;;;;;;;1.60;0.70;;;;;;;;;;4926932;29;20162;-64
2022/04/03 04:32:21;;;;;;;2.47;0.87;;;;;;;;;;4927330;29;20294;-65
2022/04/03 04:34:47;;;;;;;1.30;0.60;;;;;;;;;;4927323;29;20031;-62
2022/04/03 04:37:12;;;;;;;1.27;0.50;;;;;;;;;;4925345;29;20578;-62
2022/04/03 04:39:37;;;;;;;1.40;0.60;;;;;;;;;;4926751;29;20507;-61
2022/04/03 04:42:03;;;;;;;1.10;0.50;;;;;;;;;;4927324;29;20522;-58
2022/04/03 04:44:28;;;;;;;1.35;0.57;;;;;;;;;;4927329;29;20267;-63
2022/04/03 04:46:53;;;;;;;3.17;0.60;;;;;;;;;;4927260;29;20055;-64
2022/04/03 04:49:18;;;;;;;1.20;0.60;;;;;;;;;;4929614;29;20275;-62
2022/04/03 04:51:44;;;;;;;1.38;0.73;;;;;;;;;;4930883;29;20031;-59
2022/04/03 04:54:09;;;;;;;1.20;0.50;;;;;;;;;;4930394;29;20059;-59
2022/04/03 04:56:35;;;;;;;1.40;0.60;;;;;;;;;;4928426;29;20291;-59
2022/04/03 04:59:01;;;;;;;1.60;0.70;;;;;;;;;;4931637;29;20283;-64
2022/04/03 05:01:26;;;;;;;2.70;0.70;;;;;;;;;;4930910;29;20028;-63
2022/04/03 05:03:51;;;;;;;1.33;0.70;;;;;;;;;;4930771;29;20871;-63
2022/04/03 05:06:16;;;;;;;1.10;0.57;;;;;;;;;;4931078;29;20364;-54
2022/04/03 05:08:42;;;;;;;1.02;0.43;;;;;;;;;;4931122;29;20283;-55
2022/04/03 05:11:07;;;;;;;2.25;0.82;;;;;;;;;;4931599;29;20463;-58
2022/04/03 05:13:32;;;;;;;1.27;0.60;;;;;;;;;;4899500;29;20512;-55
2022/04/03 05:15:58;;;;;;;1.10;0.40;;;;;;;;;;4911687;29;20716;-55
2022/04/03 05:18:23;;;;;;;1.17;0.40;;;;;;;;;;4913009;29;20338;-54
2022/04/03 05:20:49;;;;;;;1.10;0.53;;;;;;;;;;4930424;29;20267;-59
2022/04/03 05:23:14;;;;;;;1.10;0.63;;;;;;;;;;4930897;29;20727;-63
2022/04/03 05:25:39;;;;;;;1.00;0.60;;;;;;;;;;4931207;29;20028;-60
2022/04/03 05:28:05;;;;;;;1.93;0.63;;;;;;;;;;4930336;29;20426;-54
2022/04/03 05:30:30;;;;;;;1.33;0.70;;;;;;;;;;4930654;29;20322;-56
2022/04/03 05:32:55;;;;;;;1.30;0.47;;;;;;;;;;4930212;29;20034;-55
2022/04/03 05:35:20;;;;;;;1.10;0.50;;;;;;;;;;4930459;29;20400;-55
2022/04/03 05:37:46;;;;;;;0.97;0.50;;;;;;;;;;4926293;29;20331;-55
2022/04/03 05:40:12;;;;;;;2.55;0.93;;;;;;;;;;4929608;29;20275;-59
2022/04/03 05:42:37;;;;;;;1.13;0.40;;;;;;;;;;4930333;29;20024;-58
2022/04/03 05:45:04;;;;;;;1.17;0.38;;;;;;;;;;4929895;29;20020;-58
2022/04/03 05:47:29;;;;;;;1.13;0.60;;;;;;;;;;4929697;29;20100;-60
2022/04/03 05:49:54;;;;;;;1.70;0.60;;;;;;;;;;4918849;29;20032;-59
2022/04/03 05:52:20;;;;;;;1.33;0.67;;;;;;;;;;4930428;29;20138;-56
2022/04/03 05:54:45;;;;;;;0.93;0.43;;;;;;;;;;4929600;29;20271;-53
2022/04/03 05:57:10;;;;;;;1.73;0.70;;;;;;;;;;4929746;29;20515;-56
2022/04/03 05:59:36;;;;;;;3.10;0.68;;;;;;;;;;4912203;29;21013;-58
2022/04/03 06:02:01;;;;;;;1.23;0.40;;;;;;;;;;4928817;29;20027;-60
2022/04/03 06:04:26;;;;;;;1.42;0.55;;;;;;;;;;4930327;29;20024;-59
2022/04/03 06:06:52;;;;;;;2.27;0.60;;;;;;;;;;4929975;29;20038;-59
2022/04/03 06:09:17;;;;;;;1.83;0.50;;;;;;;;;;4930247;29;20040;-56
2022/04/03 06:11:42;;;;;;;1.67;0.45;;;;;;;;;;4930649;29;20535;-60
2022/04/03 06:14:08;;;;;;;0.70;0.30;;;;;;;;;;4929980;29;20102;-57
2022/04/03 06:16:33;;;;;;;0.95;0.50;;;;;;;;;;4923239;29;20660;-60
2022/04/03 06:18:58;;;;;;;1.33;0.40;;;;;;;;;;4922267;29;20070;-61
2022/04/03 06:21:23;;;;;;;1.27;0.47;;;;;;;;;;4930853;29;20067;-61
2022/04/03 06:23:49;;;;;;;1.15;0.50;;;;;;;;;;4929960;29;20086;-60
2022/04/03 06:26:14;;;;;;;0.83;0.40;;;;;;;;;;4930144;29;20031;-58
2022/04/03 06:28:39;;;;;;;1.67;0.68;;;;;;;;;;4911764;29;20291;-60
2022/04/03 06:31:04;;;;;;;2.95;0.70;;;;;;;;;;4927225;29;20024;-59
2022/04/03 06:33:30;;;;;;;1.40;0.50;;;;;;;;;;4912181;29;20161;-60
2022/04/03 06:35:55;;;;;;;1.70;0.63;;;;;;;;;;4923573;29;20275;-60
2022/04/03 06:38:21;;;;;;;7.50;0.83;;;;;;;;;;4921045;29;20140;-58
2022/04/03 06:40:49;;;;;;;1.52;0.52;;;;;;;;;;4929979;29;20275;-59
2022/04/03 06:43:16;;;;;;;1.52;0.70;;;;;;;;;;4930176;29;20110;-59
2022/04/03 06:45:41;;;;;;;2.72;0.98;;;;;;;;;;4929250;29;20059;-58
2022/04/03 06:48:06;;;;;;;2.97;0.60;;;;;;;;;;4927523;29;20024;-59
2022/04/03 06:50:31;;;;;;;2.60;0.40;;;;;;;;;;4927611;29;20024;-59
2022/04/03 06:52:57;;;;;;;2.10;0.77;;;;;;;;;;4917777;29;20036;-58
2022/04/03 06:55:22;;;;;;;1.67;0.60;;;;;;;;;;4921611;29;20366;-60
2022/04/03 06:57:47;;;;;;;1.77;0.70;;;;;;;;;;4927656;29;20335;-60
2022/04/03 07:00:13;;;;;;;1.88;0.60;;;;;;;;;;4927436;29;20019;-58
2022/04/03 07:02:38;;;;;;;2.38;0.60;;;;;;;;;;4929908;29;20039;-59
2022/04/03 07:05:04;;;;;;;1.63;0.50;;;;;;;;;;4930231;29;20035;-60
2022/04/03 07:07:30;;;;;;;2.42;0.60;;;;;;;;;;4930077;29;20040;-60
2022/04/03 07:09:55;;;;;;;1.47;0.60;;;;;;;;;;4929586;29;20039;-61
2022/04/03 07:12:20;;;;;;;1.88;0.75;;;;;;;;;;4930071;29;20333;-62
2022/04/03 07:14:45;;;;;;;2.57;0.60;;;;;;;;;;4913282;29;20042;-61
2022/04/03 07:17:11;;;;;;;1.58;0.50;;;;;;;;;;4929176;29;20461;-59
2022/04/03 07:19:36;;;;;;;1.43;0.50;;;;;;;;;;4929862;29;20028;-59
2022/04/03 07:22:01;;;;;;;3.23;0.63;;;;;;;;;;4929705;29;20050;-61
2022/04/03 07:24:26;;;;;;;2.30;0.68;;;;;;;;;;4929462;29;20822;-54
2022/04/03 07:26:53;;;;;;;4.28;0.63;;;;;;;;;;4930121;29;20032;-60
2022/04/03 07:29:18;;;;;;;1.83;0.70;;;;;;;;;;4913441;29;20035;-58
2022/04/03 07:31:44;;;;;;;1.70;0.50;;;;;;;;;;4928968;29;20035;-57
2022/04/03 07:34:09;;;;;;;2.20;1.03;;;;;;;;;;4914585;29;20049;-59
2022/04/03 07:36:34;;;;;;;2.17;0.43;;;;;;;;;;4923225;29;20057;-56
2022/04/03 07:39:00;;;;;;;1.52;0.65;;;;;;;;;;4920612;29;20471;-57
2022/04/03 07:41:25;;;;;;;1.10;0.40;;;;;;;;;;4930425;29;20123;-56
2022/04/03 07:43:50;;;;;;;2.20;0.50;;;;;;;;;;4933644;29;20475;-57
2022/04/03 07:46:17;;;;;;;1.17;0.40;;;;;;;;;;4936064;29;20807;-61
2022/04/03 07:48:43;;;;;;;1.88;0.60;;;;;;;;;;4931139;29;20122;-58
2022/04/03 07:51:08;;;;;;;1.10;0.40;;;;;;;;;;4930237;29;20103;-59
2022/04/03 07:53:33;;;;;;;2.00;0.60;;;;;;;;;;4914872;29;20305;-60
2022/04/03 07:55:59;;;;;;;1.50;0.63;;;;;;;;;;4927537;29;20299;-60
2022/04/03 07:58:24;;;;;;;1.40;0.47;;;;;;;;;;4929232;29;20039;-58
2022/04/03 08:00:49;;;;;;;2.03;0.50;;;;;;;;;;4929056;29;20036;-60
2022/04/03 08:03:20;;;;;;;1.73;0.63;;;;;;;;;;4928545;29;20028;-60
2022/04/03 08:05:45;;;;;;;1.00;0.40;;;;;;;;;;4928630;29;20027;-61
2022/04/03 08:08:10;;;;;;;1.23;0.60;;;;;;;;;;4927665;29;20111;-53
2022/04/03 08:10:35;;;;;;;0.90;0.40;;;;;;;;;;4928996;29;20027;-61
2022/04/03 08:13:00;;;;;;;2.35;0.60;;;;;;;;;;4918660;29;20276;-60
2022/04/03 08:15:27;;;;;;;1.10;0.40;;;;;;;;;;4922949;29;20039;-59
2022/04/03 08:17:52;;;;;;;1.67;0.43;;;;;;;;;;4912394;29;21114;-60
2022/04/03 08:20:17;;;;;;;1.48;0.43;;;;;;;;;;4928440;29;20028;-60
2022/04/03 08:22:43;;;;;;;2.03;0.52;;;;;;;;;;4928789;29;20044;-57
2022/04/03 08:25:08;;;;;;;1.98;0.68;;;;;;;;;;4931937;29;20527;-59
2022/04/03 08:27:43;;;;;;;2.17;0.60;;;;;;;;;;4915639;29;20094;-60
2022/04/03 08:30:10;;;;;;;1.48;0.50;;;;;;;;;;4932718;29;20019;-56
2022/04/03 08:32:35;;;;;;;2.17;0.70;;;;;;;;;;4925853;29;20425;-56
2022/04/03 08:35:00;;;;;;;1.42;0.63;;;;;;;;;;4924061;29;20023;-56
2022/04/03 08:37:27;;;;;;;1.20;0.43;;;;;;;;;;4923895;29;20044;-60
2022/04/03 08:39:52;;;;;;;2.05;0.70;;;;;;;;;;4932573;29;20024;-56
2022/04/03 08:42:18;;;;;;;1.70;0.50;;;;;;;;;;4932816;29;20064;-58
2022/04/03 08:44:43;;;;;;;2.17;0.70;;;;;;;;;;4932668;29;20407;-56
2022/04/03 08:47:08;;;;;;;1.80;0.60;;;;;;;;;;4932236;29;20271;-60
2022/04/03 08:49:33;;;;;;;1.30;0.52;;;;;;;;;;4915716;29;20090;-55
2022/04/03 08:51:59;;;;;;;1.27;0.67;;;;;;;;;;4930482;29;20470;-59
2022/04/03 08:54:24;;;;;;;1.92;0.70;;;;;;;;;;4918520;29;20355;-59
2022/04/03 08:56:49;;;;;;;1.50;0.50;;;;;;;;;;4917100;29;20070;-60
2022/04/03 08:59:15;;;;;;;1.73;0.80;;;;;;;;;;4908896;29;20032;-60
2022/04/03 09:01:40;;;;;;;1.53;0.60;;;;;;;;;;4928282;29;20948;-60
2022/04/03 09:04:05;;;;;;;1.80;0.60;;;;;;;;;;4914771;29;20279;-62
2022/04/03 09:06:30;;;;;;;2.85;0.70;;;;;;;;;;4932612;29;20272;-60
2022/04/03 09:08:56;;;;;;;1.95;0.70;;;;;;;;;;4932321;29;20492;-57
2022/04/03 09:11:22;;;;;;;1.27;0.60;;;;;;;;;;4932540;29;20031;-61
2022/04/03 09:13:47;;;;;;;1.60;0.60;;;;;;;;;;4898950;29;20127;-61
2022/04/03 09:16:12;;;;;;;1.50;0.60;;;;;;;;;;4930093;29;20036;-59
2022/04/03 09:18:44;;;;;;;2.10;0.73;;;;;;;;;;4931945;29;20388;-58
2022/04/03 09:21:16;;;;;;;4.00;0.82;;;;;;;;;;4931999;29;20299;-57
2022/04/03 09:23:56;;;;;;;2.17;0.82;;;;;;;;;;4932030;29;20131;-61
2022/04/03 09:26:22;;;;;;;5.65;0.75;;;;;;;;;;4918077;29;20045;-62
2022/04/03 09:28:47;;;;;;;2.57;0.80;;;;;;;;;;4932546;29;20031;-60
2022/04/03 09:31:24;;;;;;;1.67;0.50;;;;;;;;;;4936605;29;20271;-62
2022/04/03 09:33:58;;;;;;;2.17;0.70;;;;;;;;;;4935549;29;20279;-62
2022/04/03 09:36:23;;;;;;;2.05;0.60;;;;;;;;;;4930380;29;20024;-61
2022/04/03 09:38:48;;;;;;;1.63;0.60;;;;;;;;;;4921082;29;20502;-60
2022/04/03 09:41:14;;;;;;;1.93;0.47;;;;;;;;;;4932258;29;20495;-62
2022/04/03 09:43:39;;;;;;;4.35;0.80;;;;;;;;;;4932134;29;20276;-62
2022/04/03 09:46:05;;;;;;;1.77;0.80;;;;;;;;;;4932151;29;20023;-60
2022/04/03 09:48:31;;;;;;;3.42;0.77;;;;;;;;;;4931803;29;20283;-62
2022/04/03 09:51:03;;;;;;;1.65;0.70;;;;;;;;;;4932129;29;20028;-62
2022/04/03 09:53:29;;;;;;;2.00;0.70;;;;;;;;;;4917976;29;20036;-61
2022/04/03 09:55:54;;;;;;;4.47;0.77;;;;;;;;;;4928790;29;20681;-60
2022/04/03 09:58:20;;;;;;;3.80;0.70;;;;;;;;;;4930366;29;20475;-62
2022/04/03 10:00:45;;;;;;;2.97;1.00;;;;;;;;;;4931021;29;20301;-62
2022/04/03 10:03:10;;;;;;;4.00;0.83;;;;;;;;;;4930888;29;20549;-63
2022/04/03 10:05:36;;;;;;;3.53;1.05;;;;;;;;;;4931225;29;20370;-61
2022/04/03 10:08:02;;;;;;;3.08;1.05;;;;;;;;;;4931578;29;20883;-59
2022/04/03 10:10:27;;;;;;;3.78;1.00;;;;;;;;;;4931076;29;20663;-61
2022/04/03 10:12:53;;;;;;;2.88;0.75;;;;;;;;;;4931167;29;20055;-59
2022/04/03 10:15:19;;;;;;;2.00;0.80;;;;;;;;;;4930838;29;20102;-61
2022/04/03 10:17:44;;;;;;;3.10;1.58;;;;;;;;;;4915518;29;20139;-62
2022/04/03 10:20:09;;;;;;;3.90;0.90;;;;;;;;;;4930798;29;20463;-62
2022/04/03 10:22:35;;;;;;;3.90;1.25;;;;;;;;;;4930886;29;20395;-59
2022/04/03 10:25:02;;;;;;;1.67;0.80;;;;;;;;;;4913426;29;20026;-61
2022/04/03 10:27:29;;;;;;;4.05;2.05;;;;;;;;;;4913933;29;20439;-62
2022/04/03 10:29:55;;;;;;;3.67;0.70;;;;;;;;;;4913514;29;20664;-62
2022/04/03 10:32:24;;;;;;;5.95;1.20;;;;;;;;;;4929767;29;20043;-62
2022/04/03 10:34:50;;;;;;;4.35;0.80;;;;;;;;;;4929858;29;20042;-62
2022/04/03 10:37:45;;;;;;;1.90;0.90;;;;;;;;;;4918849;29;20130;-61
2022/04/03 10:40:13;;;;;;;3.45;0.93;;;;;;;;;;4920514;29;20032;-62
2022/04/03 10:42:51;;;;;;;2.55;1.00;;;;;;;;;;4930260;29;20039;-59
2022/04/03 10:45:20;;;;;;;2.75;0.95;;;;;;;;;;4929877;29;20028;-60
2022/04/03 10:47:45;;;;;;;2.33;0.80;;;;;;;;;;4912460;29;20175;-61
2022/04/03 10:50:11;;;;;;;2.30;0.70;;;;;;;;;;4929999;29;20483;-60
2022/04/03 10:52:36;;;;;;;1.75;0.90;;;;;;;;;;4923812;29;20063;-60
2022/04/03 10:55:07;;;;;;;3.35;1.00;;;;;;;;;;4920344;29;20111;-53
2022/04/03 10:57:41;;;;;;;2.08;0.90;;;;;;;;;;4919314;29;20043;-60
2022/04/03 11:00:26;;;;;;;2.78;1.23;;;;;;;;;;4930121;29;20114;-56
2022/04/03 11:02:55;;;;;;;3.90;1.02;;;;;;;;;;4916291;29;20043;-61
2022/04/03 11:05:31;;;;;;;3.08;1.20;;;;;;;;;;4929854;29;20043;-61
2022/04/03 11:07:59;;;;;;;2.03;1.00;;;;;;;;;;4929828;29;20020;-61
2022/04/03 11:10:50;;;;;;;2.60;1.00;;;;;;;;;;4929575;29;20042;-61
2022/04/03 11:13:15;;;;;;;4.38;1.40;;;;;;;;;;4912613;29;20027;-61
2022/04/03 11:15:53;;;;;;;4.45;1.27;;;;;;;;;;4927418;29;20086;-58
2022/04/03 11:18:37;;;;;;;3.75;1.10;;;;;;;;;;4914671;29;20051;-61
2022/04/03 11:21:05;;;;;;;3.55;1.15;;;;;;;;;;4929298;29;20071;-61
2022/04/03 11:23:30;;;;;;;3.17;1.63;;;;;;;;;;4929381;29;20066;-59
2022/04/03 11:25:56;;;;;;;3.07;1.43;;;;;;;;;;4928841;29;20028;-63
2022/04/03 11:28:21;;;;;;;3.67;1.00;;;;;;;;;;4929805;29;20366;-61
2022/04/03 11:30:47;;;;;;;2.50;1.00;;;;;;;;;;4929503;29;20210;-63
2022/04/03 11:33:12;;;;;;;4.13;1.00;;;;;;;;;;4901270;29;20036;-61
2022/04/03 11:35:38;;;;;;;1.92;0.98;;;;;;;;;;4907800;29;20034;-60
2022/04/03 11:38:03;;;;;;;3.17;0.90;;;;;;;;;;4913052;29;20051;-58
2022/04/03 11:40:29;;;;;;;3.20;1.20;;;;;;;;;;4929405;29;20027;-58
2022/04/03 11:43:29;;;;;;;2.63;1.05;;;;;;;;;;4929490;29;20038;-61
2022/04/03 11:45:55;;;;;;;2.58;0.90;;;;;;;;;;4869960;29;20029;-60
2022/04/03 11:48:21;;;;;;;1.63;0.88;;;;;;;;;;4915929;29;20046;-60
2022/04/03 11:50:48;;;;;;;2.47;1.13;;;;;;;;;;4929756;29;20023;-59
2022/04/03 11:53:13;;;;;;;3.85;1.27;;;;;;;;;;4929407;29;20028;-60
2022/04/03 11:55:38;;;;;;;2.53;1.13;;;;;;;;;;4928781;29;20059;-60
2022/04/03 11:58:04;;;;;;;2.92;1.15;;;;;;;;;;4911858;29;20098;-57
2022/04/03 12:00:32;;;;;;;4.50;1.03;;;;;;;;;;4933661;29;20035;-59
2022/04/03 12:02:58;;;;;;;2.95;1.20;;;;;;;;;;4915673;29;21047;-62
2022/04/03 12:05:23;;;;;;;3.00;0.88;;;;;;;;;;4933016;29;20027;-59
2022/04/03 12:07:49;;;;;;;2.60;1.10;;;;;;;;;;4933877;29;20034;-62
2022/04/03 12:10:22;;;;;;;3.60;1.08;;;;;;;;;;4933712;29;20564;-60
2022/04/03 12:12:47;;;;;;;3.15;1.33;;;;;;;;;;4933830;29;20055;-58
2022/04/03 12:15:13;;;;;;;3.77;1.47;;;;;;;;;;4932852;29;20024;-62
2022/04/03 12:17:41;;;;;;;2.25;1.23;;;;;;;;;;4932662;29;21104;-62
2022/04/03 12:20:09;;;;;;;2.92;1.20;;;;;;;;;;4933140;29;20458;-61
2022/04/03 12:22:34;;;;;;;2.33;0.70;;;;;;;;;;4932776;29;20043;-60
2022/04/03 12:24:59;;;;;;;2.90;1.40;;;;;;;;;;4922121;29;20113;-61
2022/04/03 12:27:30;;;;;;;2.07;0.90;;;;;;;;;;4926068;29;20114;-58
2022/04/03 12:29:56;;;;;;;2.15;1.20;;;;;;;;;;4915596;29;20291;-58
2022/04/03 12:32:36;;;;;;;2.63;0.82;;;;;;;;;;4928504;29;20032;-59
2022/04/03 12:35:03;;;;;;;3.83;1.10;;;;;;;;;;4923080;29;20047;-61
2022/04/03 12:37:31;;;;;;;2.60;1.13;;;;;;;;;;4919800;29;20044;-57
2022/04/03 12:39:59;;;;;;;2.63;1.27;;;;;;;;;;4930819;29;20047;-61
2022/04/03 12:42:32;;;;;;;2.75;1.17;;;;;;;;;;4933466;29;20083;-60
2022/04/03 12:45:06;;;;;;;3.85;1.27;;;;;;;;;;4932486;29;20042;-56
2022/04/03 12:47:36;;;;;;;2.67;1.08;;;;;;;;;;4932107;29;20039;-59
2022/04/03 12:50:05;;;;;;;2.80;1.20;;;;;;;;;;4932293;29;20055;-60
2022/04/03 12:52:45;;;;;;;3.85;0.80;;;;;;;;;;4927661;29;20143;-58
2022/04/03 12:55:32;;;;;;;2.30;1.20;;;;;;;;;;4923789;29;20034;-56
2022/04/03 13:00:44;;;;;;;3.60;1.00;;;;;;;;;;4932909;29;20423;-62
2022/04/03 13:03:10;;;;;;;2.15;1.10;;;;;;;;;;4932369;29;20035;-61
2022/04/03 13:05:35;;;;;;;2.50;0.95;;;;;;;;;;4932556;29;20471;-60
2022/04/03 13:08:10;;;;;;;3.17;1.10;;;;;;;;;;4932968;29;20550;-63
2022/04/03 13:10:35;;;;;;;3.85;0.95;;;;;;;;;;4935065;29;20271;-58
2022/04/03 13:13:01;;;;;;;2.40;0.90;;;;;;;;;;4911794;29;20071;-59
2022/04/03 13:15:26;;;;;;;3.65;1.00;;;;;;;;;;4932500;29;20499;-59
2022/04/03 13:17:52;;;;;;;2.50;1.07;;;;;;;;;;4933492;29;20099;-61
2022/04/03 13:20:17;;;;;;;2.25;1.00;;;;;;;;;;4933472;29;20346;-59
2022/04/03 13:22:43;;;;;;;2.43;1.30;;;;;;;;;;4933015;29;20047;-59
2022/04/03 13:25:08;;;;;;;3.43;2.13;;;;;;;;;;4932415;29;20268;-58
2022/04/03 13:27:34;;;;;;;3.05;1.20;;;;;;;;;;4933168;29;20299;-61
2022/04/03 13:30:00;;;;;;;2.20;1.20;;;;;;;;;;4932735;29;20115;-60
2022/04/03 13:32:26;;;;;;;1.88;1.00;;;;;;;;;;4932417;29;20015;-60
2022/04/03 13:34:51;;;;;;;2.28;1.20;;;;;;;;;;4932352;29;20042;-62
2022/04/03 13:37:16;;;;;;;2.13;1.10;;;;;;;;;;4921327;29;20044;-61
2022/04/03 13:39:41;;;;;;;2.83;1.60;;;;;;;;;;4927399;29;20294;-60
2022/04/03 13:42:08;;;;;;;2.28;1.20;;;;;;;;;;4916573;29;21107;-57
2022/04/03 13:44:34;;;;;;;2.20;1.10;;;;;;;;;;4932261;29;20495;-60
2022/04/03 13:46:59;;;;;;;1.93;1.10;;;;;;;;;;4931578;29;20082;-62
2022/04/03 13:49:24;;;;;;;3.40;1.20;;;;;;;;;;4932822;29;20378;-61
2022/04/03 13:51:50;;;;;;;3.05;1.30;;;;;;;;;;4932405;29;20722;-62
2022/04/03 13:54:15;;;;;;;2.85;1.05;;;;;;;;;;4932561;29;20038;-59
2022/04/03 13:56:41;;;;;;;1.98;1.10;;;;;;;;;;4926871;29;20032;-61
2022/04/03 13:59:06;;;;;;;1.88;1.00;;;;;;;;;;4928421;29;20031;-61
2022/04/03 14:01:31;;;;;;;3.17;1.33;;;;;;;;;;4936811;29;20027;-59
2022/04/03 14:03:56;;;;;;;2.05;1.15;;;;;;;;;;4923819;29;20291;-61
2022/04/03 14:06:22;;;;;;;3.70;1.20;;;;;;;;;;4938873;29;20028;-58
2022/04/03 14:08:47;;;;;;;2.63;1.10;;;;;;;;;;4937207;29;20048;-60
2022/04/03 14:11:13;;;;;;;2.38;1.27;;;;;;;;;;4935178;29;20110;-55
2022/04/03 14:13:38;;;;;;;4.18;1.20;;;;;;;;;;4936748;29;20020;-59
2022/04/03 14:16:07;;;;;;;1.98;1.17;;;;;;;;;;4936594;29;20302;-56
2022/04/03 14:18:32;;;;;;;2.25;1.00;;;;;;;;;;4933862;29;20054;-55
2022/04/03 14:20:58;;;;;;;1.88;1.17;;;;;;;;;;4931984;29;20024;-60
2022/04/03 14:23:23;;;;;;;3.20;1.45;;;;;;;;;;4931001;29;20123;-60
2022/04/03 14:25:48;;;;;;;2.20;1.10;;;;;;;;;;4914064;29;20546;-57
2022/04/03 14:28:14;;;;;;;2.30;1.30;;;;;;;;;;4930663;29;20032;-60
2022/04/03 14:30:39;;;;;;;1.95;1.08;;;;;;;;;;4931163;29;20038;-64
2022/04/03 14:33:05;;;;;;;2.17;1.00;;;;;;;;;;4929905;29;20114;-59
2022/04/03 14:35:30;;;;;;;2.53;1.30;;;;;;;;;;4930717;29;20499;-58
2022/04/03 14:37:57;;;;;;;3.60;1.33;;;;;;;;;;4920945;29;20183;-57
2022/04/03 14:40:23;;;;;;;5.15;1.40;;;;;;;;;;4929372;29;20028;-58